메인 페이지
METAR-TAF:

METAR-TAF

공항 :

애빌린, 텍사스, 미국

위도: 32-25-12N, 경도: 099-51-25W, 고도: 545m

현재 날씨관측

예보는 29분 전, 00:56시(UTC)에 발표되었습니다.
동북동7kt
온도 18°C
습도 45%
기압 1023 hPa
시정: 16.1km
맑음

METAR: KDYS 260056Z AUTO 06007KT 10SM CLR 18/06 A3022 RMK AO2 SLP219 T01770062 $

시각: 20:25 (01:25 UTC)

예보

예보는 1 시간 25분 전, 00:00시(UTC)에 발표되었습니다.
예보 대상 시간: 26일 00시부터 27일 06시까지 (UTC)
동북동9kt
시정 10km 이상
맑음
전환 중
26일 08시부터 26일 09시까지 (UTC)
6kt
시정 10km 이상
고도 700ft 상공 구름 많음
전환 중
26일 14시부터 26일 15시까지 (UTC)
9kt
시정 10km 이상
맑음
전환 중
27일 00시부터 27일 01시까지 (UTC)
남동12kt
시정 10km 이상
고도 18000ft 상공 구름 조금

TAF: KDYS 260000Z 2600/2706 07009KT 9999 SKC QNH3019INS BECMG 2608/2609 08006KT 9999 BKN007 QNH3025INS BECMG 2614/2615 10009KT 9999 SKC QNH3022INS BECMG 2700/2701 13012KT 9999 FEW180 QNH3021INS TX22/2622Z TN09/2613Z

4,000개 이상의 공항 관측 자료 및 예보 (METAR 및 TAF 보고).

지도상에서 검색 가능한 기상관측소가 노란 점과 빨간 점으로 표시되어 있습니다.

기상관측소 명을 보려면 표시 위로 마우스를 이동하세요.

날씨 관측과 예보를 보려면 클릭하세요.

지도 변경 : 확대하려면 엑스 표시가 있는 녹색 버튼, 축소하려면 빼기 표시가 있는 녹색 버튼, 다음 페이지의 지도를 보려면 녹색 화살표를 클릭하세요.


METAR-TAF: